sensor_id;sensor_type;location;lat;lon;timestamp;temperature;humidity
21353;DHT22;10834;52.268;6.770;2022-11-18T00:01:42;8.50;99.90
21353;DHT22;10834;52.268;6.770;2022-11-18T00:04:28;8.50;99.90
21353;DHT22;10834;52.268;6.770;2022-11-18T00:07:14;8.60;99.90
21353;DHT22;10834;52.268;6.770;2022-11-18T00:10:00;8.60;99.90
21353;DHT22;10834;52.268;6.770;2022-11-18T00:12:46;8.60;99.90
21353;DHT22;10834;52.268;6.770;2022-11-18T00:16:02;8.70;99.90
21353;DHT22;10834;52.268;6.770;2022-11-18T00:18:49;8.70;99.90
21353;DHT22;10834;52.268;6.770;2022-11-18T00:21:35;8.70;99.90
21353;DHT22;10834;52.268;6.770;2022-11-18T00:24:21;8.80;99.90
21353;DHT22;10834;52.268;6.770;2022-11-18T00:27:07;8.80;99.90
21353;DHT22;10834;52.268;6.770;2022-11-18T00:29:53;8.80;99.90
21353;DHT22;10834;52.268;6.770;2022-11-18T00:32:39;8.80;99.90
21353;DHT22;10834;52.268;6.770;2022-11-18T00:35:25;8.90;99.90
21353;DHT22;10834;52.268;6.770;2022-11-18T00:38:11;8.90;99.90
21353;DHT22;10834;52.268;6.770;2022-11-18T00:40:59;8.90;99.90
21353;DHT22;10834;52.268;6.770;2022-11-18T00:43:45;9.00;99.90
21353;DHT22;10834;52.268;6.770;2022-11-18T00:46:31;9.00;99.90
21353;DHT22;10834;52.268;6.770;2022-11-18T00:49:17;9.00;99.90
21353;DHT22;10834;52.268;6.770;2022-11-18T00:52:03;9.00;99.90
21353;DHT22;10834;52.268;6.770;2022-11-18T00:54:50;9.00;99.90
21353;DHT22;10834;52.268;6.770;2022-11-18T00:57:36;9.00;99.90
21353;DHT22;10834;52.268;6.770;2022-11-18T01:00:22;9.00;99.90
21353;DHT22;10834;52.268;6.770;2022-11-18T01:03:09;9.00;99.90
21353;DHT22;10834;52.268;6.770;2022-11-18T01:05:55;9.00;99.90
21353;DHT22;10834;52.268;6.770;2022-11-18T01:08:41;9.00;99.90
21353;DHT22;10834;52.268;6.770;2022-11-18T01:11:27;9.00;99.90
21353;DHT22;10834;52.268;6.770;2022-11-18T01:14:32;9.10;99.90
21353;DHT22;10834;52.268;6.770;2022-11-18T01:17:18;9.10;99.90
21353;DHT22;10834;52.268;6.770;2022-11-18T01:20:04;9.10;99.90
21353;DHT22;10834;52.268;6.770;2022-11-18T01:22:50;9.10;99.90
21353;DHT22;10834;52.268;6.770;2022-11-18T01:25:38;9.20;99.90
21353;DHT22;10834;52.268;6.770;2022-11-18T01:28:24;9.20;99.90
21353;DHT22;10834;52.268;6.770;2022-11-18T01:31:16;9.10;99.90
21353;DHT22;10834;52.268;6.770;2022-11-18T01:34:02;9.20;99.90
21353;DHT22;10834;52.268;6.770;2022-11-18T01:36:51;9.20;99.90
21353;DHT22;10834;52.268;6.770;2022-11-18T01:39:37;9.20;99.90
21353;DHT22;10834;52.268;6.770;2022-11-18T01:42:23;9.20;99.90
21353;DHT22;10834;52.268;6.770;2022-11-18T01:45:34;9.20;99.90
21353;DHT22;10834;52.268;6.770;2022-11-18T01:48:24;9.20;99.90
21353;DHT22;10834;52.268;6.770;2022-11-18T01:51:14;9.20;99.90
21353;DHT22;10834;52.268;6.770;2022-11-18T01:54:08;9.20;99.90
21353;DHT22;10834;52.268;6.770;2022-11-18T01:56:59;9.20;99.90
21353;DHT22;10834;52.268;6.770;2022-11-18T01:59:49;9.20;99.90
21353;DHT22;10834;52.268;6.770;2022-11-18T02:02:38;9.20;99.90
21353;DHT22;10834;52.268;6.770;2022-11-18T02:05:25;9.10;99.90
21353;DHT22;10834;52.268;6.770;2022-11-18T02:08:13;9.10;99.90
21353;DHT22;10834;52.268;6.770;2022-11-18T02:11:00;9.10;99.90
21353;DHT22;10834;52.268;6.770;2022-11-18T02:13:46;9.10;99.90
21353;DHT22;10834;52.268;6.770;2022-11-18T02:16:55;9.10;99.90
21353;DHT22;10834;52.268;6.770;2022-11-18T02:31:44;9.00;99.90
21353;DHT22;10834;52.268;6.770;2022-11-18T02:37:49;8.90;99.90
21353;DHT22;10834;52.268;6.770;2022-11-18T02:40:42;8.90;99.90
21353;DHT22;10834;52.268;6.770;2022-11-18T02:43:43;8.80;99.90
21353;DHT22;10834;52.268;6.770;2022-11-18T02:46:32;8.80;99.90
21353;DHT22;10834;52.268;6.770;2022-11-18T02:49:26;8.70;99.90
21353;DHT22;10834;52.268;6.770;2022-11-18T02:52:14;8.70;99.90
21353;DHT22;10834;52.268;6.770;2022-11-18T02:55:02;8.70;99.90
21353;DHT22;10834;52.268;6.770;2022-11-18T02:57:51;8.70;99.90
21353;DHT22;10834;52.268;6.770;2022-11-18T03:00:37;8.70;99.90
21353;DHT22;10834;52.268;6.770;2022-11-18T03:03:31;8.70;99.90
21353;DHT22;10834;52.268;6.770;2022-11-18T03:06:31;8.80;99.90
21353;DHT22;10834;52.268;6.770;2022-11-18T03:09:26;8.70;99.90
21353;DHT22;10834;52.268;6.770;2022-11-18T03:18:23;8.80;99.90
21353;DHT22;10834;52.268;6.770;2022-11-18T03:21:40;8.80;99.90
21353;DHT22;10834;52.268;6.770;2022-11-18T03:24:30;8.90;99.90
21353;DHT22;10834;52.268;6.770;2022-11-18T03:27:25;8.90;99.90
21353;DHT22;10834;52.268;6.770;2022-11-18T03:30:16;8.90;99.90
21353;DHT22;10834;52.268;6.770;2022-11-18T03:33:11;8.90;99.90
21353;DHT22;10834;52.268;6.770;2022-11-18T03:36:01;8.90;99.90
21353;DHT22;10834;52.268;6.770;2022-11-18T03:38:51;8.80;99.90
21353;DHT22;10834;52.268;6.770;2022-11-18T03:41:52;8.90;99.90
21353;DHT22;10834;52.268;6.770;2022-11-18T03:44:42;8.90;99.90
21353;DHT22;10834;52.268;6.770;2022-11-18T03:47:36;8.90;99.90
21353;DHT22;10834;52.268;6.770;2022-11-18T03:50:29;9.00;99.90
21353;DHT22;10834;52.268;6.770;2022-11-18T03:53:17;9.00;99.90
21353;DHT22;10834;52.268;6.770;2022-11-18T03:56:15;9.00;99.90
21353;DHT22;10834;52.268;6.770;2022-11-18T03:59:09;9.00;99.90
21353;DHT22;10834;52.268;6.770;2022-11-18T04:02:07;9.00;99.90
21353;DHT22;10834;52.268;6.770;2022-11-18T04:04:56;8.90;99.90
21353;DHT22;10834;52.268;6.770;2022-11-18T04:07:58;9.00;99.90
21353;DHT22;10834;52.268;6.770;2022-11-18T04:10:51;8.90;99.90
21353;DHT22;10834;52.268;6.770;2022-11-18T04:13:41;8.90;99.90
21353;DHT22;10834;52.268;6.770;2022-11-18T04:16:27;8.90;99.90
21353;DHT22;10834;52.268;6.770;2022-11-18T04:19:13;8.80;99.90
21353;DHT22;10834;52.268;6.770;2022-11-18T04:21:59;8.80;99.90
21353;DHT22;10834;52.268;6.770;2022-11-18T04:24:46;8.80;99.90
21353;DHT22;10834;52.268;6.770;2022-11-18T04:27:32;8.80;99.90
21353;DHT22;10834;52.268;6.770;2022-11-18T04:30:18;8.80;99.90
21353;DHT22;10834;52.268;6.770;2022-11-18T04:33:04;8.80;99.90
21353;DHT22;10834;52.268;6.770;2022-11-18T04:35:50;8.70;99.90
21353;DHT22;10834;52.268;6.770;2022-11-18T04:38:36;8.70;99.90
21353;DHT22;10834;52.268;6.770;2022-11-18T04:41:22;8.70;99.90
21353;DHT22;10834;52.268;6.770;2022-11-18T04:44:31;8.70;99.90
21353;DHT22;10834;52.268;6.770;2022-11-18T04:47:18;8.70;99.90
21353;DHT22;10834;52.268;6.770;2022-11-18T04:50:04;8.70;99.90
21353;DHT22;10834;52.268;6.770;2022-11-18T04:52:51;8.60;99.90
21353;DHT22;10834;52.268;6.770;2022-11-18T04:55:37;8.60;99.90
21353;DHT22;10834;52.268;6.770;2022-11-18T04:58:23;8.60;99.90
21353;DHT22;10834;52.268;6.770;2022-11-18T05:01:09;8.60;99.90
21353;DHT22;10834;52.268;6.770;2022-11-18T05:03:55;8.60;99.90
21353;DHT22;10834;52.268;6.770;2022-11-18T05:06:41;8.60;99.90
21353;DHT22;10834;52.268;6.770;2022-11-18T05:09:27;8.60;99.90
21353;DHT22;10834;52.268;6.770;2022-11-18T05:12:14;8.60;99.90
21353;DHT22;10834;52.268;6.770;2022-11-18T05:15:20;8.60;99.90
21353;DHT22;10834;52.268;6.770;2022-11-18T05:18:10;8.60;99.90
21353;DHT22;10834;52.268;6.770;2022-11-18T05:20:56;8.60;99.90
21353;DHT22;10834;52.268;6.770;2022-11-18T05:23:42;8.60;99.90
21353;DHT22;10834;52.268;6.770;2022-11-18T05:26:28;8.60;99.90
21353;DHT22;10834;52.268;6.770;2022-11-18T05:29:14;8.60;99.90
21353;DHT22;10834;52.268;6.770;2022-11-18T05:32:00;8.60;99.90
21353;DHT22;10834;52.268;6.770;2022-11-18T05:34:46;8.60;99.90
21353;DHT22;10834;52.268;6.770;2022-11-18T05:37:32;8.60;99.90
21353;DHT22;10834;52.268;6.770;2022-11-18T05:40:18;8.60;99.90
21353;DHT22;10834;52.268;6.770;2022-11-18T05:43:04;8.60;99.90
21353;DHT22;10834;52.268;6.770;2022-11-18T05:45:56;8.50;99.90
21353;DHT22;10834;52.268;6.770;2022-11-18T05:48:42;8.50;99.90
21353;DHT22;10834;52.268;6.770;2022-11-18T05:51:28;8.50;99.90
21353;DHT22;10834;52.268;6.770;2022-11-18T05:54:15;8.50;99.90
21353;DHT22;10834;52.268;6.770;2022-11-18T05:57:03;8.50;99.90
21353;DHT22;10834;52.268;6.770;2022-11-18T05:59:49;8.50;99.90
21353;DHT22;10834;52.268;6.770;2022-11-18T06:02:36;8.60;99.90
21353;DHT22;10834;52.268;6.770;2022-11-18T06:05:23;8.60;99.90
21353;DHT22;10834;52.268;6.770;2022-11-18T06:08:11;8.50;99.90
21353;DHT22;10834;52.268;6.770;2022-11-18T06:10:58;8.50;99.90
21353;DHT22;10834;52.268;6.770;2022-11-18T06:13:54;8.60;99.90
21353;DHT22;10834;52.268;6.770;2022-11-18T06:16:50;8.50;99.90
21353;DHT22;10834;52.268;6.770;2022-11-18T06:19:37;8.60;99.90
21353;DHT22;10834;52.268;6.770;2022-11-18T06:22:23;8.50;99.90
21353;DHT22;10834;52.268;6.770;2022-11-18T06:25:10;8.60;99.90
21353;DHT22;10834;52.268;6.770;2022-11-18T06:27:59;8.60;99.90
21353;DHT22;10834;52.268;6.770;2022-11-18T06:30:46;8.60;99.90
21353;DHT22;10834;52.268;6.770;2022-11-18T06:33:32;8.60;99.90
21353;DHT22;10834;52.268;6.770;2022-11-18T06:36:18;8.60;99.90
21353;DHT22;10834;52.268;6.770;2022-11-18T06:39:05;8.60;99.90
21353;DHT22;10834;52.268;6.770;2022-11-18T06:41:54;8.60;99.90
21353;DHT22;10834;52.268;6.770;2022-11-18T06:44:40;8.60;99.90
21353;DHT22;10834;52.268;6.770;2022-11-18T06:47:27;8.60;99.90
21353;DHT22;10834;52.268;6.770;2022-11-18T06:50:13;8.60;99.90
21353;DHT22;10834;52.268;6.770;2022-11-18T06:52:59;8.60;99.90
21353;DHT22;10834;52.268;6.770;2022-11-18T06:55:46;8.60;99.90
21353;DHT22;10834;52.268;6.770;2022-11-18T06:58:32;8.60;99.90
21353;DHT22;10834;52.268;6.770;2022-11-18T07:01:20;8.60;99.90
21353;DHT22;10834;52.268;6.770;2022-11-18T07:04:07;8.60;99.90
21353;DHT22;10834;52.268;6.770;2022-11-18T07:06:53;8.60;99.90
21353;DHT22;10834;52.268;6.770;2022-11-18T07:09:39;8.70;99.90
21353;DHT22;10834;52.268;6.770;2022-11-18T07:12:25;8.70;99.90
21353;DHT22;10834;52.268;6.770;2022-11-18T07:15:11;8.70;99.90
21353;DHT22;10834;52.268;6.770;2022-11-18T07:17:58;8.60;99.90
21353;DHT22;10834;52.268;6.770;2022-11-18T07:20:44;8.60;99.90
21353;DHT22;10834;52.268;6.770;2022-11-18T07:23:31;8.60;99.90
21353;DHT22;10834;52.268;6.770;2022-11-18T07:26:18;8.60;99.90
21353;DHT22;10834;52.268;6.770;2022-11-18T07:29:04;8.60;99.90
21353;DHT22;10834;52.268;6.770;2022-11-18T07:31:50;8.60;99.90
21353;DHT22;10834;52.268;6.770;2022-11-18T07:34:37;8.60;99.90
21353;DHT22;10834;52.268;6.770;2022-11-18T07:37:23;8.60;99.90
21353;DHT22;10834;52.268;6.770;2022-11-18T07:40:09;8.50;99.90
21353;DHT22;10834;52.268;6.770;2022-11-18T07:42:55;8.50;99.90
21353;DHT22;10834;52.268;6.770;2022-11-18T07:45:41;8.60;99.90
21353;DHT22;10834;52.268;6.770;2022-11-18T07:48:27;8.60;99.90
21353;DHT22;10834;52.268;6.770;2022-11-18T07:51:15;8.50;99.90
21353;DHT22;10834;52.268;6.770;2022-11-18T07:54:08;8.50;99.90
21353;DHT22;10834;52.268;6.770;2022-11-18T07:56:55;8.60;99.90
21353;DHT22;10834;52.268;6.770;2022-11-18T07:59:40;8.60;99.90
21353;DHT22;10834;52.268;6.770;2022-11-18T08:02:27;8.60;99.90
21353;DHT22;10834;52.268;6.770;2022-11-18T08:05:13;8.60;99.90
21353;DHT22;10834;52.268;6.770;2022-11-18T08:07:59;8.60;99.90
21353;DHT22;10834;52.268;6.770;2022-11-18T08:10:45;8.60;99.90
21353;DHT22;10834;52.268;6.770;2022-11-18T08:13:31;8.60;99.90
21353;DHT22;10834;52.268;6.770;2022-11-18T08:16:20;8.60;99.90
21353;DHT22;10834;52.268;6.770;2022-11-18T08:19:06;8.60;99.90
21353;DHT22;10834;52.268;6.770;2022-11-18T08:21:52;8.70;99.90
21353;DHT22;10834;52.268;6.770;2022-11-18T08:24:38;8.60;99.90
21353;DHT22;10834;52.268;6.770;2022-11-18T08:27:24;8.60;99.90
21353;DHT22;10834;52.268;6.770;2022-11-18T08:30:11;8.60;99.90
21353;DHT22;10834;52.268;6.770;2022-11-18T08:32:57;8.60;99.90
21353;DHT22;10834;52.268;6.770;2022-11-18T08:35:43;8.70;99.90
21353;DHT22;10834;52.268;6.770;2022-11-18T08:38:29;8.70;99.90
21353;DHT22;10834;52.268;6.770;2022-11-18T08:41:18;8.80;99.90
21353;DHT22;10834;52.268;6.770;2022-11-18T08:44:06;8.80;99.90
21353;DHT22;10834;52.268;6.770;2022-11-18T08:46:53;8.80;99.90
21353;DHT22;10834;52.268;6.770;2022-11-18T08:49:39;8.80;99.90
21353;DHT22;10834;52.268;6.770;2022-11-18T08:52:25;8.80;99.90
21353;DHT22;10834;52.268;6.770;2022-11-18T08:55:11;8.90;99.90
21353;DHT22;10834;52.268;6.770;2022-11-18T08:57:57;8.90;99.90
21353;DHT22;10834;52.268;6.770;2022-11-18T09:00:43;8.90;99.90
21353;DHT22;10834;52.268;6.770;2022-11-18T09:03:29;8.90;99.90
21353;DHT22;10834;52.268;6.770;2022-11-18T09:06:18;9.00;99.90
21353;DHT22;10834;52.268;6.770;2022-11-18T09:09:05;9.00;99.90
21353;DHT22;10834;52.268;6.770;2022-11-18T09:11:51;9.10;99.90
21353;DHT22;10834;52.268;6.770;2022-11-18T09:14:37;9.00;99.90
21353;DHT22;10834;52.268;6.770;2022-11-18T09:17:23;9.10;99.90
21353;DHT22;10834;52.268;6.770;2022-11-18T09:20:09;9.10;99.90
21353;DHT22;10834;52.268;6.770;2022-11-18T09:22:55;9.10;99.90
21353;DHT22;10834;52.268;6.770;2022-11-18T09:25:41;9.10;99.90
21353;DHT22;10834;52.268;6.770;2022-11-18T09:28:28;9.10;99.90
21353;DHT22;10834;52.268;6.770;2022-11-18T09:31:16;9.10;99.90
21353;DHT22;10834;52.268;6.770;2022-11-18T09:34:02;9.00;99.90
21353;DHT22;10834;52.268;6.770;2022-11-18T09:36:48;9.00;99.90
21353;DHT22;10834;52.268;6.770;2022-11-18T09:39:35;9.00;99.90
21353;DHT22;10834;52.268;6.770;2022-11-18T09:45:44;8.90;99.90
21353;DHT22;10834;52.268;6.770;2022-11-18T09:48:35;9.00;99.90
21353;DHT22;10834;52.268;6.770;2022-11-18T09:51:43;9.00;99.90
21353;DHT22;10834;52.268;6.770;2022-11-18T09:54:33;9.10;99.90
21353;DHT22;10834;52.268;6.770;2022-11-18T09:57:42;9.10;99.90
21353;DHT22;10834;52.268;6.770;2022-11-18T10:00:29;9.10;99.90
21353;DHT22;10834;52.268;6.770;2022-11-18T10:03:25;9.10;99.90
21353;DHT22;10834;52.268;6.770;2022-11-18T10:06:25;9.10;99.90
21353;DHT22;10834;52.268;6.770;2022-11-18T10:09:34;9.10;99.90
21353;DHT22;10834;52.268;6.770;2022-11-18T10:12:34;9.10;99.90
21353;DHT22;10834;52.268;6.770;2022-11-18T10:24:59;9.40;99.90
21353;DHT22;10834;52.268;6.770;2022-11-18T10:27:48;9.60;99.90
21353;DHT22;10834;52.268;6.770;2022-11-18T10:30:34;9.60;99.90
21353;DHT22;10834;52.268;6.770;2022-11-18T10:39:12;9.80;99.90
21353;DHT22;10834;52.268;6.770;2022-11-18T10:42:02;9.80;99.90
21353;DHT22;10834;52.268;6.770;2022-11-18T10:44:48;9.80;99.90
21353;DHT22;10834;52.268;6.770;2022-11-18T10:47:34;9.90;99.90
21353;DHT22;10834;52.268;6.770;2022-11-18T10:50:40;9.90;99.90
21353;DHT22;10834;52.268;6.770;2022-11-18T10:56:17;10.10;99.90
21353;DHT22;10834;52.268;6.770;2022-11-18T10:59:03;10.10;99.90
21353;DHT22;10834;52.268;6.770;2022-11-18T11:01:57;10.30;99.90
21353;DHT22;10834;52.268;6.770;2022-11-18T11:04:46;10.40;99.90
21353;DHT22;10834;52.268;6.770;2022-11-18T11:07:34;10.60;99.90
21353;DHT22;10834;52.268;6.770;2022-11-18T11:10:21;10.80;99.90
21353;DHT22;10834;52.268;6.770;2022-11-18T11:13:12;10.90;99.90
21353;DHT22;10834;52.268;6.770;2022-11-18T11:16:02;11.00;99.90
21353;DHT22;10834;52.268;6.770;2022-11-18T11:18:55;11.00;99.90
21353;DHT22;10834;52.268;6.770;2022-11-18T11:21:44;11.00;99.90
21353;DHT22;10834;52.268;6.770;2022-11-18T11:24:30;11.00;99.90
21353;DHT22;10834;52.268;6.770;2022-11-18T11:30:23;11.20;99.90
21353;DHT22;10834;52.268;6.770;2022-11-18T11:49:52;11.20;99.90
21353;DHT22;10834;52.268;6.770;2022-11-18T11:56:11;11.00;99.90
21353;DHT22;10834;52.268;6.770;2022-11-18T11:59:19;11.00;99.90
21353;DHT22;10834;52.268;6.770;2022-11-18T12:05:28;10.90;99.90
21353;DHT22;10834;52.268;6.770;2022-11-18T12:08:23;10.80;99.90
21353;DHT22;10834;52.268;6.770;2022-11-18T12:17:14;10.70;99.90
21353;DHT22;10834;52.268;6.770;2022-11-18T12:20:36;10.70;99.90
21353;DHT22;10834;52.268;6.770;2022-11-18T12:23:30;10.60;99.90
21353;DHT22;10834;52.268;6.770;2022-11-18T12:26:33;10.70;99.90
21353;DHT22;10834;52.268;6.770;2022-11-18T12:32:35;10.50;99.90
21353;DHT22;10834;52.268;6.770;2022-11-18T12:35:27;10.40;99.90
21353;DHT22;10834;52.268;6.770;2022-11-18T12:38:30;10.40;99.90
21353;DHT22;10834;52.268;6.770;2022-11-18T12:44:48;10.30;99.90
21353;DHT22;10834;52.268;6.770;2022-11-18T12:50:46;10.20;99.90
21353;DHT22;10834;52.268;6.770;2022-11-18T12:56:23;10.10;99.90
21353;DHT22;10834;52.268;6.770;2022-11-18T12:59:12;10.00;99.90
21353;DHT22;10834;52.268;6.770;2022-11-18T13:02:04;10.00;99.90
21353;DHT22;10834;52.268;6.770;2022-11-18T13:05:13;9.90;99.90
21353;DHT22;10834;52.268;6.770;2022-11-18T13:08:10;9.80;99.90
21353;DHT22;10834;52.268;6.770;2022-11-18T13:11:24;9.70;99.90
21353;DHT22;10834;52.268;6.770;2022-11-18T13:14:34;9.70;99.90
21353;DHT22;10834;52.268;6.770;2022-11-18T13:17:41;9.60;99.90
21353;DHT22;10834;52.268;6.770;2022-11-18T13:20:56;9.40;99.90
21353;DHT22;10834;52.268;6.770;2022-11-18T13:23:42;9.30;99.90
21353;DHT22;10834;52.268;6.770;2022-11-18T13:26:40;9.30;99.90
21353;DHT22;10834;52.268;6.770;2022-11-18T13:30:09;9.20;99.90
21353;DHT22;10834;52.268;6.770;2022-11-18T13:32:57;9.10;99.90
21353;DHT22;10834;52.268;6.770;2022-11-18T13:35:43;9.10;99.90
21353;DHT22;10834;52.268;6.770;2022-11-18T13:38:29;9.10;99.90
21353;DHT22;10834;52.268;6.770;2022-11-18T13:41:19;9.00;99.90
21353;DHT22;10834;52.268;6.770;2022-11-18T13:50:16;8.90;99.90
21353;DHT22;10834;52.268;6.770;2022-11-18T13:56:05;8.80;99.90
21353;DHT22;10834;52.268;6.770;2022-11-18T13:58:54;8.80;99.90
21353;DHT22;10834;52.268;6.770;2022-11-18T14:01:43;8.70;99.90
21353;DHT22;10834;52.268;6.770;2022-11-18T14:04:30;8.70;99.90
21353;DHT22;10834;52.268;6.770;2022-11-18T14:07:31;8.60;99.90
21353;DHT22;10834;52.268;6.770;2022-11-18T14:10:32;8.60;99.90
21353;DHT22;10834;52.268;6.770;2022-11-18T14:13:29;8.60;99.90
21353;DHT22;10834;52.268;6.770;2022-11-18T14:19:04;8.50;99.90
21353;DHT22;10834;52.268;6.770;2022-11-18T14:21:50;8.50;99.90
21353;DHT22;10834;52.268;6.770;2022-11-18T14:24:36;8.40;99.90
21353;DHT22;10834;52.268;6.770;2022-11-18T14:27:37;8.30;99.90
21353;DHT22;10834;52.268;6.770;2022-11-18T14:30:40;8.20;99.90
21353;DHT22;10834;52.268;6.770;2022-11-18T14:33:31;8.10;99.90
21353;DHT22;10834;52.268;6.770;2022-11-18T14:36:17;8.00;99.90
21353;DHT22;10834;52.268;6.770;2022-11-18T14:39:27;7.90;99.90
21353;DHT22;10834;52.268;6.770;2022-11-18T14:42:13;7.90;99.90
21353;DHT22;10834;52.268;6.770;2022-11-18T14:44:59;7.80;99.90
21353;DHT22;10834;52.268;6.770;2022-11-18T14:47:45;7.80;99.90
21353;DHT22;10834;52.268;6.770;2022-11-18T14:50:31;7.70;99.90
21353;DHT22;10834;52.268;6.770;2022-11-18T14:53:18;7.80;99.90
21353;DHT22;10834;52.268;6.770;2022-11-18T14:56:14;7.80;99.90
21353;DHT22;10834;52.268;6.770;2022-11-18T14:59:02;7.70;99.90
21353;DHT22;10834;52.268;6.770;2022-11-18T15:01:48;7.70;99.90
21353;DHT22;10834;52.268;6.770;2022-11-18T15:04:34;7.70;99.90
21353;DHT22;10834;52.268;6.770;2022-11-18T15:07:20;7.60;99.90
21353;DHT22;10834;52.268;6.770;2022-11-18T15:10:08;7.50;99.90
21353;DHT22;10834;52.268;6.770;2022-11-18T15:12:54;7.50;99.90
21353;DHT22;10834;52.268;6.770;2022-11-18T15:15:41;7.50;99.90
21353;DHT22;10834;52.268;6.770;2022-11-18T15:18:27;7.40;99.90
21353;DHT22;10834;52.268;6.770;2022-11-18T15:21:13;7.40;99.90
21353;DHT22;10834;52.268;6.770;2022-11-18T15:23:59;7.30;99.90
21353;DHT22;10834;52.268;6.770;2022-11-18T15:26:46;7.30;99.90
21353;DHT22;10834;52.268;6.770;2022-11-18T15:29:32;7.30;99.90
21353;DHT22;10834;52.268;6.770;2022-11-18T15:32:18;7.20;99.90
21353;DHT22;10834;52.268;6.770;2022-11-18T15:35:04;7.20;99.90
21353;DHT22;10834;52.268;6.770;2022-11-18T15:37:50;7.10;99.90
21353;DHT22;10834;52.268;6.770;2022-11-18T15:40:36;7.10;99.90
21353;DHT22;10834;52.268;6.770;2022-11-18T15:43:23;7.00;99.90
21353;DHT22;10834;52.268;6.770;2022-11-18T15:46:09;7.00;99.90
21353;DHT22;10834;52.268;6.770;2022-11-18T15:48:57;7.00;99.90
21353;DHT22;10834;52.268;6.770;2022-11-18T15:51:43;6.90;99.90
21353;DHT22;10834;52.268;6.770;2022-11-18T15:54:29;6.80;99.90
21353;DHT22;10834;52.268;6.770;2022-11-18T15:57:15;6.80;99.90
21353;DHT22;10834;52.268;6.770;2022-11-18T16:00:02;6.70;99.90
21353;DHT22;10834;52.268;6.770;2022-11-18T16:02:48;6.70;99.90
21353;DHT22;10834;52.268;6.770;2022-11-18T16:05:34;6.60;99.90
21353;DHT22;10834;52.268;6.770;2022-11-18T16:08:20;6.50;99.90
21353;DHT22;10834;52.268;6.770;2022-11-18T16:11:10;6.40;99.90
21353;DHT22;10834;52.268;6.770;2022-11-18T16:14:16;6.40;99.90
21353;DHT22;10834;52.268;6.770;2022-11-18T16:17:03;6.40;99.90
21353;DHT22;10834;52.268;6.770;2022-11-18T16:19:49;6.40;99.90
21353;DHT22;10834;52.268;6.770;2022-11-18T16:22:35;6.40;99.90
21353;DHT22;10834;52.268;6.770;2022-11-18T16:25:22;6.40;99.90
21353;DHT22;10834;52.268;6.770;2022-11-18T16:28:08;6.30;99.90
21353;DHT22;10834;52.268;6.770;2022-11-18T16:30:54;6.20;99.90
21353;DHT22;10834;52.268;6.770;2022-11-18T16:33:58;6.20;99.90
21353;DHT22;10834;52.268;6.770;2022-11-18T16:36:46;6.20;99.90
21353;DHT22;10834;52.268;6.770;2022-11-18T16:39:33;6.20;99.90
21353;DHT22;10834;52.268;6.770;2022-11-18T16:42:19;6.10;99.90
21353;DHT22;10834;52.268;6.770;2022-11-18T16:45:05;6.10;99.90
21353;DHT22;10834;52.268;6.770;2022-11-18T16:47:51;6.10;99.90
21353;DHT22;10834;52.268;6.770;2022-11-18T16:50:37;6.00;99.90
21353;DHT22;10834;52.268;6.770;2022-11-18T16:53:23;6.00;99.90
21353;DHT22;10834;52.268;6.770;2022-11-18T16:56:09;5.90;99.90
21353;DHT22;10834;52.268;6.770;2022-11-18T16:59:04;5.90;99.90
21353;DHT22;10834;52.268;6.770;2022-11-18T17:01:51;5.90;99.90
21353;DHT22;10834;52.268;6.770;2022-11-18T17:04:38;5.80;99.90
21353;DHT22;10834;52.268;6.770;2022-11-18T17:07:24;5.80;99.90
21353;DHT22;10834;52.268;6.770;2022-11-18T17:10:10;5.80;99.90
21353;DHT22;10834;52.268;6.770;2022-11-18T17:13:04;5.80;99.90
21353;DHT22;10834;52.268;6.770;2022-11-18T17:15:50;5.80;99.90
21353;DHT22;10834;52.268;6.770;2022-11-18T17:18:36;5.80;99.90
21353;DHT22;10834;52.268;6.770;2022-11-18T17:21:23;5.70;99.90
21353;DHT22;10834;52.268;6.770;2022-11-18T17:24:12;5.70;99.90
21353;DHT22;10834;52.268;6.770;2022-11-18T17:26:58;5.60;99.90
21353;DHT22;10834;52.268;6.770;2022-11-18T17:29:44;5.60;99.90
21353;DHT22;10834;52.268;6.770;2022-11-18T17:32:30;5.60;99.90
21353;DHT22;10834;52.268;6.770;2022-11-18T17:35:16;5.50;99.90
21353;DHT22;10834;52.268;6.770;2022-11-18T17:38:02;5.50;99.90
21353;DHT22;10834;52.268;6.770;2022-11-18T17:40:53;5.40;99.90
21353;DHT22;10834;52.268;6.770;2022-11-18T17:43:39;5.40;99.90
21353;DHT22;10834;52.268;6.770;2022-11-18T17:46:25;5.30;99.90
21353;DHT22;10834;52.268;6.770;2022-11-18T17:49:16;5.30;99.90
21353;DHT22;10834;52.268;6.770;2022-11-18T17:52:02;5.30;99.90
21353;DHT22;10834;52.268;6.770;2022-11-18T17:54:48;5.30;99.90
21353;DHT22;10834;52.268;6.770;2022-11-18T17:57:35;5.20;99.90
21353;DHT22;10834;52.268;6.770;2022-11-18T18:00:21;5.20;99.90
21353;DHT22;10834;52.268;6.770;2022-11-18T18:03:06;5.10;99.90
21353;DHT22;10834;52.268;6.770;2022-11-18T18:06:03;5.00;99.90
21353;DHT22;10834;52.268;6.770;2022-11-18T18:08:54;5.00;99.90
21353;DHT22;10834;52.268;6.770;2022-11-18T18:11:40;5.00;99.90
21353;DHT22;10834;52.268;6.770;2022-11-18T18:14:26;5.00;99.90
21353;DHT22;10834;52.268;6.770;2022-11-18T18:17:12;5.00;99.90
21353;DHT22;10834;52.268;6.770;2022-11-18T18:19:58;5.00;99.90
21353;DHT22;10834;52.268;6.770;2022-11-18T18:22:44;5.00;99.90
21353;DHT22;10834;52.268;6.770;2022-11-18T18:25:32;5.00;99.90
21353;DHT22;10834;52.268;6.770;2022-11-18T18:28:19;5.00;99.90
21353;DHT22;10834;52.268;6.770;2022-11-18T18:31:07;5.00;99.90
21353;DHT22;10834;52.268;6.770;2022-11-18T18:33:54;5.00;99.90
21353;DHT22;10834;52.268;6.770;2022-11-18T18:36:40;4.90;99.90
21353;DHT22;10834;52.268;6.770;2022-11-18T18:39:26;4.90;99.90
21353;DHT22;10834;52.268;6.770;2022-11-18T18:42:13;4.90;99.90
21353;DHT22;10834;52.268;6.770;2022-11-18T18:44:59;4.90;99.90
21353;DHT22;10834;52.268;6.770;2022-11-18T18:48:03;4.80;99.90
21353;DHT22;10834;52.268;6.770;2022-11-18T18:50:50;4.80;99.90
21353;DHT22;10834;52.268;6.770;2022-11-18T18:53:36;4.90;99.90
21353;DHT22;10834;52.268;6.770;2022-11-18T18:56:22;4.80;99.90
21353;DHT22;10834;52.268;6.770;2022-11-18T18:59:09;4.80;99.90
21353;DHT22;10834;52.268;6.770;2022-11-18T19:01:55;4.70;99.90
21353;DHT22;10834;52.268;6.770;2022-11-18T19:04:41;4.80;99.90
21353;DHT22;10834;52.268;6.770;2022-11-18T19:07:29;4.70;99.90
21353;DHT22;10834;52.268;6.770;2022-11-18T19:10:16;4.60;99.90
21353;DHT22;10834;52.268;6.770;2022-11-18T19:13:02;4.50;99.90
21353;DHT22;10834;52.268;6.770;2022-11-18T19:15:48;4.50;99.90
21353;DHT22;10834;52.268;6.770;2022-11-18T19:18:35;4.40;99.90
21353;DHT22;10834;52.268;6.770;2022-11-18T19:21:21;4.40;99.90
21353;DHT22;10834;52.268;6.770;2022-11-18T19:24:07;4.40;99.90
21353;DHT22;10834;52.268;6.770;2022-11-18T19:26:53;4.40;99.90
21353;DHT22;10834;52.268;6.770;2022-11-18T19:29:39;4.30;99.90
21353;DHT22;10834;52.268;6.770;2022-11-18T19:32:25;4.30;99.90
21353;DHT22;10834;52.268;6.770;2022-11-18T19:35:12;4.20;99.90
21353;DHT22;10834;52.268;6.770;2022-11-18T19:37:58;4.20;99.90
21353;DHT22;10834;52.268;6.770;2022-11-18T19:40:44;4.20;99.90
21353;DHT22;10834;52.268;6.770;2022-11-18T19:43:30;4.30;99.90
21353;DHT22;10834;52.268;6.770;2022-11-18T19:46:16;4.20;99.90